sensor_id;sensor_type;location;lat;lon;timestamp;pressure;altitude;pressure_sealevel;temperature;humidity
21817;BME280;13247;47.504;7.382;2023-10-09T00:02:27;98021.28;;;12.70;100.00
21817;BME280;13247;47.504;7.382;2023-10-09T00:05:13;98016.97;;;12.68;100.00
21817;BME280;13247;47.504;7.382;2023-10-09T00:08:07;98008.97;;;12.72;100.00
21817;BME280;13247;47.504;7.382;2023-10-09T00:10:53;98012.84;;;12.90;100.00
21817;BME280;13247;47.504;7.382;2023-10-09T00:13:39;98013.38;;;13.01;100.00
21817;BME280;13247;47.504;7.382;2023-10-09T00:16:33;98009.53;;;13.12;100.00
21817;BME280;13247;47.504;7.382;2023-10-09T00:19:19;98010.13;;;13.22;100.00
21817;BME280;13247;47.504;7.382;2023-10-09T00:22:15;98013.50;;;12.96;100.00
21817;BME280;13247;47.504;7.382;2023-10-09T00:25:10;98010.16;;;12.91;100.00
21817;BME280;13247;47.504;7.382;2023-10-09T00:27:56;98003.94;;;12.94;100.00
21817;BME280;13247;47.504;7.382;2023-10-09T00:30:44;98011.69;;;12.98;100.00
21817;BME280;13247;47.504;7.382;2023-10-09T00:33:28;98007.19;;;13.02;100.00
21817;BME280;13247;47.504;7.382;2023-10-09T00:36:13;98003.75;;;13.00;100.00
21817;BME280;13247;47.504;7.382;2023-10-09T00:39:01;98003.94;;;12.94;100.00
21817;BME280;13247;47.504;7.382;2023-10-09T00:41:55;98007.63;;;12.88;100.00
21817;BME280;13247;47.504;7.382;2023-10-09T00:44:43;98008.47;;;12.89;100.00
21817;BME280;13247;47.504;7.382;2023-10-09T00:47:28;98006.19;;;12.77;100.00
21817;BME280;13247;47.504;7.382;2023-10-09T00:50:19;97999.88;;;12.82;100.00
21817;BME280;13247;47.504;7.382;2023-10-09T00:53:04;98003.56;;;12.77;100.00
21817;BME280;13247;47.504;7.382;2023-10-09T00:56:01;98005.50;;;12.70;100.00
21817;BME280;13247;47.504;7.382;2023-10-09T00:58:50;98001.25;;;12.66;100.00
21817;BME280;13247;47.504;7.382;2023-10-09T01:02:05;98005.34;;;12.45;100.00
21817;BME280;13247;47.504;7.382;2023-10-09T01:04:49;98000.59;;;12.27;100.00
21817;BME280;13247;47.504;7.382;2023-10-09T01:07:35;98005.06;;;12.24;100.00
21817;BME280;13247;47.504;7.382;2023-10-09T01:10:21;98006.53;;;12.34;100.00
21817;BME280;13247;47.504;7.382;2023-10-09T01:13:06;98004.31;;;12.51;100.00
21817;BME280;13247;47.504;7.382;2023-10-09T01:15:54;97992.31;;;12.41;100.00
21817;BME280;13247;47.504;7.382;2023-10-09T01:18:47;97986.06;;;12.45;100.00
21817;BME280;13247;47.504;7.382;2023-10-09T01:21:34;97986.97;;;12.44;100.00
21817;BME280;13247;47.504;7.382;2023-10-09T01:24:19;97980.00;;;12.43;100.00
21817;BME280;13247;47.504;7.382;2023-10-09T01:27:05;97984.84;;;12.26;100.00
21817;BME280;13247;47.504;7.382;2023-10-09T01:29:56;97981.00;;;12.39;100.00
21817;BME280;13247;47.504;7.382;2023-10-09T01:32:44;97974.03;;;12.36;100.00
21817;BME280;13247;47.504;7.382;2023-10-09T01:35:30;97972.88;;;12.46;100.00
21817;BME280;13247;47.504;7.382;2023-10-09T01:38:17;97979.81;;;12.49;100.00
21817;BME280;13247;47.504;7.382;2023-10-09T01:41:03;97973.91;;;12.41;100.00
21817;BME280;13247;47.504;7.382;2023-10-09T01:43:51;97967.88;;;12.37;100.00
21817;BME280;13247;47.504;7.382;2023-10-09T01:46:39;97969.69;;;12.35;100.00
21817;BME280;13247;47.504;7.382;2023-10-09T01:49:25;97969.28;;;12.49;100.00
21817;BME280;13247;47.504;7.382;2023-10-09T01:52:16;97967.88;;;12.37;100.00
21817;BME280;13247;47.504;7.382;2023-10-09T01:55:01;97969.31;;;12.18;100.00
21817;BME280;13247;47.504;7.382;2023-10-09T01:58:07;97968.59;;;12.12;100.00
21817;BME280;13247;47.504;7.382;2023-10-09T02:01:11;97963.41;;;12.09;100.00
21817;BME280;13247;47.504;7.382;2023-10-09T02:03:56;97967.56;;;12.17;100.00
21817;BME280;13247;47.504;7.382;2023-10-09T02:06:47;97966.28;;;12.01;100.00
21817;BME280;13247;47.504;7.382;2023-10-09T02:09:37;97967.31;;;11.94;100.00
21817;BME280;13247;47.504;7.382;2023-10-09T02:12:31;97963.66;;;12.00;100.00
21817;BME280;13247;47.504;7.382;2023-10-09T02:15:18;97969.50;;;12.11;100.00
21817;BME280;13247;47.504;7.382;2023-10-09T02:18:23;97969.91;;;11.96;100.00
21817;BME280;13247;47.504;7.382;2023-10-09T02:21:07;97969.84;;;11.99;100.00
21817;BME280;13247;47.504;7.382;2023-10-09T02:23:52;97965.63;;;11.93;100.00
21817;BME280;13247;47.504;7.382;2023-10-09T02:26:41;97967.69;;;11.80;100.00
21817;BME280;13247;47.504;7.382;2023-10-09T02:29:38;97967.78;;;11.77;100.00
21817;BME280;13247;47.504;7.382;2023-10-09T02:32:23;97968.75;;;11.73;100.00
21817;BME280;13247;47.504;7.382;2023-10-09T02:35:12;97964.09;;;11.83;100.00
21817;BME280;13247;47.504;7.382;2023-10-09T02:38:13;97964.38;;;11.74;100.00
21817;BME280;13247;47.504;7.382;2023-10-09T02:40:59;97957.84;;;11.89;100.00
21817;BME280;13247;47.504;7.382;2023-10-09T02:43:49;97959.22;;;12.02;100.00
21817;BME280;13247;47.504;7.382;2023-10-09T02:46:39;97955.53;;;12.09;100.00
21817;BME280;13247;47.504;7.382;2023-10-09T02:49:25;97962.25;;;12.19;100.00
21817;BME280;13247;47.504;7.382;2023-10-09T02:52:11;97949.09;;;12.19;100.00
21817;BME280;13247;47.504;7.382;2023-10-09T02:54:58;97942.38;;;12.09;100.00
21817;BME280;13247;47.504;7.382;2023-10-09T02:57:54;97945.94;;;12.08;100.00
21817;BME280;13247;47.504;7.382;2023-10-09T03:00:55;97938.16;;;12.03;100.00
21817;BME280;13247;47.504;7.382;2023-10-09T03:03:43;97942.56;;;12.03;100.00
21817;BME280;13247;47.504;7.382;2023-10-09T03:06:32;97943.06;;;11.85;100.00
21817;BME280;13247;47.504;7.382;2023-10-09T03:09:19;97949.03;;;11.90;100.00
21817;BME280;13247;47.504;7.382;2023-10-09T03:12:11;97945.19;;;11.70;100.00
21817;BME280;13247;47.504;7.382;2023-10-09T03:14:56;97937.94;;;11.78;100.00
21817;BME280;13247;47.504;7.382;2023-10-09T03:17:43;97947.50;;;11.82;100.00
21817;BME280;13247;47.504;7.382;2023-10-09T03:20:28;97944.19;;;11.74;100.00
21817;BME280;13247;47.504;7.382;2023-10-09T03:23:15;97951.50;;;11.62;100.00
21817;BME280;13247;47.504;7.382;2023-10-09T03:25:59;97953.41;;;11.55;100.00
21817;BME280;13247;47.504;7.382;2023-10-09T03:28:45;97958.19;;;11.75;100.00
21817;BME280;13247;47.504;7.382;2023-10-09T03:31:30;97958.28;;;11.72;100.00
21817;BME280;13247;47.504;7.382;2023-10-09T03:34:16;97961.53;;;11.81;100.00
21817;BME280;13247;47.504;7.382;2023-10-09T03:37:02;97953.13;;;11.66;100.00
21817;BME280;13247;47.504;7.382;2023-10-09T03:39:50;97959.88;;;11.77;100.00
21817;BME280;13247;47.504;7.382;2023-10-09T03:42:39;97956.44;;;11.75;100.00
21817;BME280;13247;47.504;7.382;2023-10-09T03:45:26;97963.03;;;11.56;100.00
21817;BME280;13247;47.504;7.382;2023-10-09T03:48:12;97953.16;;;11.31;100.00
21817;BME280;13247;47.504;7.382;2023-10-09T03:51:06;97958.88;;;11.48;100.00
21817;BME280;13247;47.504;7.382;2023-10-09T03:53:53;97961.28;;;11.55;100.00
21817;BME280;13247;47.504;7.382;2023-10-09T03:56:38;97962.75;;;11.68;100.00
21817;BME280;13247;47.504;7.382;2023-10-09T03:59:22;97968.38;;;11.87;100.00
21817;BME280;13247;47.504;7.382;2023-10-09T04:02:07;97958.03;;;11.82;100.00
21817;BME280;13247;47.504;7.382;2023-10-09T04:04:52;97963.38;;;11.78;100.00
21817;BME280;13247;47.504;7.382;2023-10-09T04:07:36;97960.47;;;11.89;100.00
21817;BME280;13247;47.504;7.382;2023-10-09T04:10:21;97956.88;;;11.91;100.00
21817;BME280;13247;47.504;7.382;2023-10-09T04:13:28;97955.28;;;11.86;100.00
21817;BME280;13247;47.504;7.382;2023-10-09T04:16:20;97960.88;;;11.73;100.00
21817;BME280;13247;47.504;7.382;2023-10-09T04:19:17;97956.56;;;11.71;100.00
21817;BME280;13247;47.504;7.382;2023-10-09T04:22:06;97956.44;;;11.75;100.00
21817;BME280;13247;47.504;7.382;2023-10-09T04:24:53;97965.97;;;11.44;100.00
21817;BME280;13247;47.504;7.382;2023-10-09T04:27:38;97970.09;;;11.54;100.00
21817;BME280;13247;47.504;7.382;2023-10-09T04:30:23;97961.38;;;11.52;100.00
21817;BME280;13247;47.504;7.382;2023-10-09T04:33:10;97964.06;;;11.49;100.00
21817;BME280;13247;47.504;7.382;2023-10-09T04:36:12;97962.66;;;11.36;100.00
21817;BME280;13247;47.504;7.382;2023-10-09T04:39:03;97967.47;;;11.18;100.00
21817;BME280;13247;47.504;7.382;2023-10-09T04:41:48;97969.94;;;11.25;100.00
21817;BME280;13247;47.504;7.382;2023-10-09T04:44:33;97965.28;;;10.99;100.00
21817;BME280;13247;47.504;7.382;2023-10-09T04:47:20;97957.84;;;11.18;100.00
21817;BME280;13247;47.504;7.382;2023-10-09T04:50:11;97963.88;;;11.23;100.00
21817;BME280;13247;47.504;7.382;2023-10-09T04:52:55;97961.16;;;11.26;100.00
21817;BME280;13247;47.504;7.382;2023-10-09T04:55:40;97960.16;;;10.95;100.00
21817;BME280;13247;47.504;7.382;2023-10-09T04:58:28;97963.53;;;10.62;100.00
21817;BME280;13247;47.504;7.382;2023-10-09T05:01:17;97958.88;;;10.74;100.00
21817;BME280;13247;47.504;7.382;2023-10-09T05:04:20;97959.47;;;10.87;100.00
21817;BME280;13247;47.504;7.382;2023-10-09T05:07:20;97970.34;;;10.69;100.00
21817;BME280;13247;47.504;7.382;2023-10-09T05:10:08;97966.38;;;10.91;100.00
21817;BME280;13247;47.504;7.382;2023-10-09T05:12:59;97966.81;;;11.10;100.00
21817;BME280;13247;47.504;7.382;2023-10-09T05:15:44;97967.00;;;11.02;100.00
21817;BME280;13247;47.504;7.382;2023-10-09T05:18:31;97967.81;;;11.04;100.00
21817;BME280;13247;47.504;7.382;2023-10-09T05:24:16;97976.19;;;10.81;100.00
21817;BME280;13247;47.504;7.382;2023-10-09T05:27:03;97974.88;;;11.02;100.00
21817;BME280;13247;47.504;7.382;2023-10-09T05:30:02;97977.34;;;11.08;100.00
21817;BME280;13247;47.504;7.382;2023-10-09T05:33:05;97984.53;;;10.98;100.00
21817;BME280;13247;47.504;7.382;2023-10-09T05:36:16;97980.84;;;11.07;100.00
21817;BME280;13247;47.504;7.382;2023-10-09T05:39:10;97985.75;;;11.22;100.00
21817;BME280;13247;47.504;7.382;2023-10-09T05:42:04;97983.28;;;11.16;100.00
21817;BME280;13247;47.504;7.382;2023-10-09T05:45:05;97986.44;;;10.92;100.00
21817;BME280;13247;47.504;7.382;2023-10-09T05:48:02;97976.72;;;10.97;100.00
21817;BME280;13247;47.504;7.382;2023-10-09T05:50:57;97979.41;;;10.94;100.00
21817;BME280;13247;47.504;7.382;2023-10-09T05:53:53;97977.25;;;10.73;100.00
21817;BME280;13247;47.504;7.382;2023-10-09T05:57:08;97982.56;;;10.70;100.00
21817;BME280;13247;47.504;7.382;2023-10-09T06:00:25;97986.19;;;11.02;100.00
21817;BME280;13247;47.504;7.382;2023-10-09T06:03:28;97978.13;;;11.12;100.00
21817;BME280;13247;47.504;7.382;2023-10-09T06:06:32;97991.53;;;10.99;100.00
21817;BME280;13247;47.504;7.382;2023-10-09T06:09:35;97983.31;;;10.76;100.00
21817;BME280;13247;47.504;7.382;2023-10-09T06:12:34;97980.94;;;11.04;100.00
21817;BME280;13247;47.504;7.382;2023-10-09T06:15:39;97984.50;;;11.01;100.00
21817;BME280;13247;47.504;7.382;2023-10-09T06:18:30;97981.81;;;11.03;100.00
21817;BME280;13247;47.504;7.382;2023-10-09T06:21:20;97989.78;;;11.00;100.00
21817;BME280;13247;47.504;7.382;2023-10-09T06:24:24;97988.72;;;11.09;100.00
21817;BME280;13247;47.504;7.382;2023-10-09T06:27:13;98002.03;;;10.99;100.00
21817;BME280;13247;47.504;7.382;2023-10-09T06:30:09;98004.06;;;11.25;100.00
21817;BME280;13247;47.504;7.382;2023-10-09T06:33:08;98006.00;;;11.54;100.00
21817;BME280;13247;47.504;7.382;2023-10-09T06:36:13;98017.25;;;11.59;100.00
21817;BME280;13247;47.504;7.382;2023-10-09T06:39:02;98007.47;;;11.65;100.00
21817;BME280;13247;47.504;7.382;2023-10-09T06:42:12;98006.66;;;11.63;100.00
21817;BME280;13247;47.504;7.382;2023-10-09T06:45:18;98010.97;;;11.64;100.00
21817;BME280;13247;47.504;7.382;2023-10-09T06:48:03;98016.19;;;11.66;100.00
21817;BME280;13247;47.504;7.382;2023-10-09T06:51:14;98017.22;;;11.60;100.00
21817;BME280;13247;47.504;7.382;2023-10-09T06:54:11;98019.03;;;12.26;100.00
21817;BME280;13247;47.504;7.382;2023-10-09T06:57:00;98033.25;;;12.19;100.00
21817;BME280;13247;47.504;7.382;2023-10-09T07:00:06;98036.63;;;12.24;100.00
21817;BME280;13247;47.504;7.382;2023-10-09T07:03:09;98033.41;;;12.45;100.00
21817;BME280;13247;47.504;7.382;2023-10-09T07:06:11;98042.75;;;12.56;100.00
21817;BME280;13247;47.504;7.382;2023-10-09T07:09:25;98039.59;;;12.75;100.00
21817;BME280;13247;47.504;7.382;2023-10-09T07:12:26;98046.38;;;12.83;100.00
21817;BME280;13247;47.504;7.382;2023-10-09T07:15:12;98037.84;;;13.33;100.00
21817;BME280;13247;47.504;7.382;2023-10-09T07:17:57;98047.28;;;13.41;100.00
21817;BME280;13247;47.504;7.382;2023-10-09T07:21:01;98052.97;;;13.55;100.00
21817;BME280;13247;47.504;7.382;2023-10-09T07:23:56;98046.28;;;13.45;100.00
21817;BME280;13247;47.504;7.382;2023-10-09T07:26:42;98050.44;;;13.52;100.00
21817;BME280;13247;47.504;7.382;2023-10-09T07:29:32;98053.72;;;13.60;100.00
21817;BME280;13247;47.504;7.382;2023-10-09T07:32:31;98049.44;;;13.82;100.00
21817;BME280;13247;47.504;7.382;2023-10-09T07:35:16;98047.03;;;14.02;100.00
21817;BME280;13247;47.504;7.382;2023-10-09T07:38:25;98051.16;;;14.09;100.00
21817;BME280;13247;47.504;7.382;2023-10-09T07:41:13;98047.22;;;14.22;100.00
21817;BME280;13247;47.504;7.382;2023-10-09T07:43:57;98053.38;;;14.47;100.00
21817;BME280;13247;47.504;7.382;2023-10-09T07:46:42;98058.41;;;14.55;100.00
21817;BME280;13247;47.504;7.382;2023-10-09T07:49:58;98060.09;;;14.80;100.00
21817;BME280;13247;47.504;7.382;2023-10-09T07:52:43;98062.88;;;15.01;100.00
21817;BME280;13247;47.504;7.382;2023-10-09T07:55:29;98072.16;;;15.11;100.00
21817;BME280;13247;47.504;7.382;2023-10-09T07:58:24;98066.69;;;15.38;100.00
21817;BME280;13247;47.504;7.382;2023-10-09T08:01:15;98061.34;;;15.63;100.00
21817;BME280;13247;47.504;7.382;2023-10-09T08:04:24;98063.50;;;15.75;100.00
21817;BME280;13247;47.504;7.382;2023-10-09T08:07:27;98065.31;;;15.95;100.00
21817;BME280;13247;47.504;7.382;2023-10-09T08:10:18;98060.28;;;16.30;100.00
21817;BME280;13247;47.504;7.382;2023-10-09T08:13:03;98064.50;;;16.56;100.00
21817;BME280;13247;47.504;7.382;2023-10-09T08:16:08;98062.84;;;16.74;100.00
21817;BME280;13247;47.504;7.382;2023-10-09T08:19:04;98059.16;;;16.96;100.00
21817;BME280;13247;47.504;7.382;2023-10-09T08:22:12;98052.47;;;17.26;100.00
21817;BME280;13247;47.504;7.382;2023-10-09T08:25:13;98054.72;;;17.54;100.00
21817;BME280;13247;47.504;7.382;2023-10-09T08:28:16;98056.81;;;17.83;100.00
21817;BME280;13247;47.504;7.382;2023-10-09T08:31:14;98049.94;;;18.15;100.00
21817;BME280;13247;47.504;7.382;2023-10-09T08:34:18;98048.69;;;18.39;100.00
21817;BME280;13247;47.504;7.382;2023-10-09T08:37:09;98047.84;;;18.73;100.00
21817;BME280;13247;47.504;7.382;2023-10-09T08:39:57;98046.56;;;18.80;100.00
21817;BME280;13247;47.504;7.382;2023-10-09T08:42:44;98043.41;;;19.06;100.00
21817;BME280;13247;47.504;7.382;2023-10-09T08:45:37;98049.59;;;19.22;100.00
21817;BME280;13247;47.504;7.382;2023-10-09T08:48:23;98040.94;;;19.19;100.00
21817;BME280;13247;47.504;7.382;2023-10-09T08:51:11;98054.13;;;19.53;100.00
21817;BME280;13247;47.504;7.382;2023-10-09T08:53:56;98046.47;;;19.63;100.00
21817;BME280;13247;47.504;7.382;2023-10-09T08:56:42;98046.22;;;19.51;100.00
21817;BME280;13247;47.504;7.382;2023-10-09T08:59:41;98038.25;;;19.67;100.00
21817;BME280;13247;47.504;7.382;2023-10-09T09:02:27;98039.06;;;19.83;100.00
21817;BME280;13247;47.504;7.382;2023-10-09T09:05:21;98034.16;;;20.07;100.00
21817;BME280;13247;47.504;7.382;2023-10-09T09:08:24;98029.06;;;20.33;100.00
21817;BME280;13247;47.504;7.382;2023-10-09T09:11:17;98027.44;;;20.31;100.00
21817;BME280;13247;47.504;7.382;2023-10-09T09:14:07;98031.94;;;20.45;100.00
21817;BME280;13247;47.504;7.382;2023-10-09T09:16:57;98032.94;;;20.72;100.00
21817;BME280;13247;47.504;7.382;2023-10-09T09:19:42;98032.66;;;20.76;100.00
21817;BME280;13247;47.504;7.382;2023-10-09T09:22:27;98032.31;;;20.96;100.00
21817;BME280;13247;47.504;7.382;2023-10-09T09:25:11;98033.66;;;21.32;93.76
21817;BME280;13247;47.504;7.382;2023-10-09T09:27:56;98032.31;;;21.25;100.00
21817;BME280;13247;47.504;7.382;2023-10-09T09:30:42;98025.34;;;21.50;98.71
21817;BME280;13247;47.504;7.382;2023-10-09T09:33:28;98027.13;;;21.64;97.24
21817;BME280;13247;47.504;7.382;2023-10-09T09:36:24;98021.97;;;21.20;100.00
21817;BME280;13247;47.504;7.382;2023-10-09T09:39:13;98022.16;;;21.99;94.24
21817;BME280;13247;47.504;7.382;2023-10-09T09:42:04;98004.78;;;22.06;94.11
21817;BME280;13247;47.504;7.382;2023-10-09T09:44:52;98006.25;;;22.24;91.86
21817;BME280;13247;47.504;7.382;2023-10-09T09:47:38;98009.06;;;22.47;83.20
21817;BME280;13247;47.504;7.382;2023-10-09T09:50:23;98005.44;;;22.48;84.14
21817;BME280;13247;47.504;7.382;2023-10-09T09:53:14;98001.00;;;22.74;81.14
21817;BME280;13247;47.504;7.382;2023-10-09T09:56:04;98005.91;;;22.93;83.57
21817;BME280;13247;47.504;7.382;2023-10-09T09:58:51;98000.34;;;23.08;74.27
21817;BME280;13247;47.504;7.382;2023-10-09T10:01:41;98002.59;;;23.02;77.21
21817;BME280;13247;47.504;7.382;2023-10-09T10:04:29;97997.75;;;23.68;68.76
21817;BME280;13247;47.504;7.382;2023-10-09T10:07:21;98003.41;;;23.76;66.57
21817;BME280;13247;47.504;7.382;2023-10-09T10:10:39;97995.34;;;24.12;65.19
21817;BME280;13247;47.504;7.382;2023-10-09T10:20:01;97990.00;;;24.58;58.71
21817;BME280;13247;47.504;7.382;2023-10-09T10:23:19;97991.94;;;24.80;59.50
21817;BME280;13247;47.504;7.382;2023-10-09T10:26:21;97996.06;;;24.84;59.29
21817;BME280;13247;47.504;7.382;2023-10-09T10:29:17;97986.34;;;24.48;60.60
21817;BME280;13247;47.504;7.382;2023-10-09T10:32:11;97996.22;;;24.82;58.52
21817;BME280;13247;47.504;7.382;2023-10-09T10:34:56;97988.66;;;24.99;55.56
21817;BME280;13247;47.504;7.382;2023-10-09T10:37:40;97990.00;;;25.04;56.90
21817;BME280;13247;47.504;7.382;2023-10-09T10:40:47;97986.81;;;24.99;55.56
21817;BME280;13247;47.504;7.382;2023-10-09T10:43:42;97991.22;;;24.89;55.80
21817;BME280;13247;47.504;7.382;2023-10-09T10:46:41;97987.94;;;24.85;57.96
21817;BME280;13247;47.504;7.382;2023-10-09T10:49:29;97976.84;;;25.34;53.54
21817;BME280;13247;47.504;7.382;2023-10-09T10:52:26;97977.19;;;25.63;53.15
21817;BME280;13247;47.504;7.382;2023-10-09T10:55:20;97980.16;;;25.49;53.47
21817;BME280;13247;47.504;7.382;2023-10-09T10:58:17;97987.06;;;25.07;56.22
21817;BME280;13247;47.504;7.382;2023-10-09T11:01:08;97987.69;;;25.00;57.77
21817;BME280;13247;47.504;7.382;2023-10-09T11:03:57;97980.59;;;24.99;59.28
21817;BME280;13247;47.504;7.382;2023-10-09T11:06:42;97988.16;;;25.16;56.74
21817;BME280;13247;47.504;7.382;2023-10-09T11:09:28;97983.66;;;25.05;57.40
21817;BME280;13247;47.504;7.382;2023-10-09T11:12:19;97974.03;;;25.25;58.41
21817;BME280;13247;47.504;7.382;2023-10-09T11:15:14;97980.00;;;25.39;56.64
21817;BME280;13247;47.504;7.382;2023-10-09T11:18:07;97968.78;;;25.12;56.70
21817;BME280;13247;47.504;7.382;2023-10-09T11:20:56;97974.88;;;25.36;57.08
21817;BME280;13247;47.504;7.382;2023-10-09T11:23:47;97967.56;;;25.16;56.92
21817;BME280;13247;47.504;7.382;2023-10-09T11:26:35;97967.19;;;25.10;56.79
21817;BME280;13247;47.504;7.382;2023-10-09T11:29:24;97969.38;;;25.16;57.55
21817;BME280;13247;47.504;7.382;2023-10-09T11:32:27;97968.78;;;25.23;58.20
21817;BME280;13247;47.504;7.382;2023-10-09T11:35:17;97953.75;;;25.21;57.71
21817;BME280;13247;47.504;7.382;2023-10-09T11:38:12;97950.72;;;25.14;58.36
21817;BME280;13247;47.504;7.382;2023-10-09T11:41:16;97949.22;;;25.32;57.79
21817;BME280;13247;47.504;7.382;2023-10-09T11:44:07;97949.72;;;25.26;57.74
21817;BME280;13247;47.504;7.382;2023-10-09T11:47:02;97956.56;;;24.97;59.97
21817;BME280;13247;47.504;7.382;2023-10-09T11:50:03;97950.22;;;25.31;58.18
21817;BME280;13247;47.504;7.382;2023-10-09T11:52:58;97950.09;;;25.22;59.00
21817;BME280;13247;47.504;7.382;2023-10-09T11:56:03;97951.19;;;25.30;57.35
21817;BME280;13247;47.504;7.382;2023-10-09T11:58:48;97953.41;;;25.14;57.16
21817;BME280;13247;47.504;7.382;2023-10-09T12:01:37;97939.63;;;25.19;58.09
21817;BME280;13247;47.504;7.382;2023-10-09T12:04:27;97941.94;;;25.01;60.63
21817;BME280;13247;47.504;7.382;2023-10-09T12:07:14;97939.88;;;24.93;62.71
21817;BME280;13247;47.504;7.382;2023-10-09T12:09:59;97944.13;;;24.74;62.02
21817;BME280;13247;47.504;7.382;2023-10-09T12:12:44;97932.66;;;25.16;60.16
21817;BME280;13247;47.504;7.382;2023-10-09T12:15:31;97931.03;;;25.36;57.22
21817;BME280;13247;47.504;7.382;2023-10-09T12:18:22;97924.53;;;25.60;56.18
21817;BME280;13247;47.504;7.382;2023-10-09T12:21:08;97927.78;;;25.21;57.09
21817;BME280;13247;47.504;7.382;2023-10-09T12:24:00;97929.72;;;25.19;58.92
21817;BME280;13247;47.504;7.382;2023-10-09T12:26:45;97926.28;;;25.39;57.37
21817;BME280;13247;47.504;7.382;2023-10-09T12:29:32;97918.09;;;25.52;56.12
21817;BME280;13247;47.504;7.382;2023-10-09T12:32:17;97919.88;;;25.74;55.99
21817;BME280;13247;47.504;7.382;2023-10-09T12:35:05;97912.38;;;25.34;56.42
21817;BME280;13247;47.504;7.382;2023-10-09T12:38:01;97911.84;;;25.62;56.27
21817;BME280;13247;47.504;7.382;2023-10-09T12:40:47;97909.63;;;25.99;56.16
21817;BME280;13247;47.504;7.382;2023-10-09T12:43:38;97907.38;;;26.15;56.91
21817;BME280;13247;47.504;7.382;2023-10-09T12:46:23;97901.34;;;26.23;54.30
21817;BME280;13247;47.504;7.382;2023-10-09T12:49:08;97889.41;;;25.84;56.86
21817;BME280;13247;47.504;7.382;2023-10-09T12:51:53;97893.16;;;25.93;56.15
21817;BME280;13247;47.504;7.382;2023-10-09T12:54:38;97883.75;;;25.87;56.68
21817;BME280;13247;47.504;7.382;2023-10-09T12:57:23;97888.34;;;25.76;59.31
21817;BME280;13247;47.504;7.382;2023-10-09T13:00:08;97883.50;;;25.69;56.59
21817;BME280;13247;47.504;7.382;2023-10-09T13:02:56;97882.84;;;26.09;56.71
21817;BME280;13247;47.504;7.382;2023-10-09T13:05:40;97874.13;;;26.16;56.27
21817;BME280;13247;47.504;7.382;2023-10-09T13:08:37;97866.50;;;26.42;55.45
21817;BME280;13247;47.504;7.382;2023-10-09T13:11:25;97867.56;;;26.30;54.40
21817;BME280;13247;47.504;7.382;2023-10-09T13:14:13;97868.56;;;26.29;54.51
21817;BME280;13247;47.504;7.382;2023-10-09T13:17:06;97863.19;;;26.59;52.37
21817;BME280;13247;47.504;7.382;2023-10-09T13:19:58;97859.97;;;26.14;52.38
21817;BME280;13247;47.504;7.382;2023-10-09T13:22:43;97856.47;;;26.44;nan
21817;BME280;13247;47.504;7.382;2023-10-09T13:25:30;97848.75;;;26.60;50.93
21817;BME280;13247;47.504;7.382;2023-10-09T13:28:23;97853.88;;;26.63;51.39
21817;BME280;13247;47.504;7.382;2023-10-09T13:31:08;97848.66;;;26.71;51.62
21817;BME280;13247;47.504;7.382;2023-10-09T13:33:55;97845.59;;;26.55;50.60
21817;BME280;13247;47.504;7.382;2023-10-09T13:36:41;97842.09;;;26.85;48.45
21817;BME280;13247;47.504;7.382;2023-10-09T13:39:35;97840.34;;;26.44;51.93
21817;BME280;13247;47.504;7.382;2023-10-09T13:42:24;97842.22;;;26.83;49.34
21817;BME280;13247;47.504;7.382;2023-10-09T13:45:10;97835.22;;;27.11;48.47
21817;BME280;13247;47.504;7.382;2023-10-09T13:48:00;97827.97;;;27.02;48.06
21817;BME280;13247;47.504;7.382;2023-10-09T13:50:47;97828.41;;;27.07;46.77
21817;BME280;13247;47.504;7.382;2023-10-09T13:53:32;97830.56;;;27.22;46.60
21817;BME280;13247;47.504;7.382;2023-10-09T13:56:18;97826.47;;;27.28;47.26
21817;BME280;13247;47.504;7.382;2023-10-09T13:59:04;97824.72;;;26.98;48.00
21817;BME280;13247;47.504;7.382;2023-10-09T14:01:55;97822.19;;;27.06;48.94
21817;BME280;13247;47.504;7.382;2023-10-09T14:04:40;97830.78;;;26.61;51.26
21817;BME280;13247;47.504;7.382;2023-10-09T14:07:25;97826.78;;;26.85;50.50
21817;BME280;13247;47.504;7.382;2023-10-09T14:10:13;97816.78;;;26.97;51.00
21817;BME280;13247;47.504;7.382;2023-10-09T14:13:10;97816.19;;;26.93;51.62
21817;BME280;13247;47.504;7.382;2023-10-09T14:15:58;97811.91;;;26.81;53.63
21817;BME280;13247;47.504;7.382;2023-10-09T14:18:46;97802.88;;;26.92;54.39
21817;BME280;13247;47.504;7.382;2023-10-09T14:21:31;97803.72;;;27.02;59.57
21817;BME280;13247;47.504;7.382;2023-10-09T14:24:22;97801.75;;;26.94;59.44
21817;BME280;13247;47.504;7.382;2023-10-09T14:27:16;97795.41;;;27.14;57.67
21817;BME280;13247;47.504;7.382;2023-10-09T14:30:05;97794.78;;;27.41;56.51
21817;BME280;13247;47.504;7.382;2023-10-09T14:32:58;97800.16;;;27.60;56.98
21817;BME280;13247;47.504;7.382;2023-10-09T14:35:44;97794.31;;;27.65;58.02
21817;BME280;13247;47.504;7.382;2023-10-09T14:38:29;97794.38;;;27.06;55.60
21817;BME280;13247;47.504;7.382;2023-10-09T14:41:20;97795.28;;;27.26;52.90
21817;BME280;13247;47.504;7.382;2023-10-09T14:44:07;97790.09;;;26.84;53.75
21817;BME280;13247;47.504;7.382;2023-10-09T14:47:00;97790.00;;;27.05;52.09
21817;BME280;13247;47.504;7.382;2023-10-09T14:49:48;97794.63;;;27.43;51.21
21817;BME280;13247;47.504;7.382;2023-10-09T14:52:33;97785.81;;;27.50;49.57
21817;BME280;13247;47.504;7.382;2023-10-09T14:55:18;97780.25;;;27.13;51.23
21817;BME280;13247;47.504;7.382;2023-10-09T14:58:05;97773.00;;;27.04;50.63
21817;BME280;13247;47.504;7.382;2023-10-09T15:00:53;97777.91;;;27.39;50.47
21817;BME280;13247;47.504;7.382;2023-10-09T15:03:38;97780.28;;;27.61;50.19
21817;BME280;13247;47.504;7.382;2023-10-09T15:06:23;97781.69;;;27.46;50.13
21817;BME280;13247;47.504;7.382;2023-10-09T15:09:08;97781.13;;;27.81;53.24